Puerto Banus, Marbella

>

This is an optional block (switch it off / on) in the settings - file ($SITE['banners'] = false;)

You can display ads, any other important text or photo’s using text / html or PHP code.

You can place one or more at the top and or bottom and it can all be different for content / size .



Meteosat more information blitzortung!


Radar lluvias  rain snow radar


Visita nuestra red de sitios de meteo:

Documentation for the template used

MeteoibericaRed estaciones Meteorologicas

MeteoclimaticRed estaciones Meteorologicas



Sin Advertencias climatologicas .En este momento tenemos Nivel Verde.    No hay Alarmas

Pagina Historial Weather Underground texto

Diario Resumen Septiembre 19, 2017 Unidades:  Métrico    impérial   Tanto
« Anterior Dia
Siguiente Dia »
Diario Semana Mensual Anual Personalizada
  Actual: Maxima: Minima: Media:
Temperatura: 20.3 °C 25.0 °C 17.2 °C 18.9 °C
Punto de rocío: 16.8 °C 17.1 °C 13.6 °C 15.4 °C
Humedad: 80 % 88 % 50 % 80 %
Velocidad del Viento: 5.6 km/h 16.7 km/h 0.0 km/h 3.9 km/h
Ráfagas de viento: 5.6 km/h 16.7 km/h - -
Viento:SSE - - ESE
Pression baro: 1019.5 hPa 1019.5 hPa 1016.8 hPa -
Précipitaciones: 0.0 mm      
Historical Graphs
 
 
Datos de tabla para Septiembre 19, 2017
Tiempo Temperatura Punto de rocío Pression baro Viento Velocidad del Viento Ráfagas de viento Humedad Las precipitaciones Rate ( Hora )
00:02 23.8 °C 14.7 °C 1018.2 hPa West 11.1 km/h 11.1 km/h 57 % 0.0 mm
00:07 24.0 °C 14.4 °C 1017.8 hPa West 16.7 km/h 16.7 km/h 55 % 0.0 mm
00:12 24.2 °C 14.3 °C 1017.8 hPa West 13.0 km/h 13.0 km/h 54 % 0.0 mm
00:17 24.3 °C 14.4 °C 1017.8 hPa WNW 7.4 km/h 7.4 km/h 54 % 0.0 mm
00:22 24.6 °C 14.1 °C 1017.8 hPa NW 14.8 km/h 14.8 km/h 52 % 0.0 mm
00:27 24.8 °C 14.0 °C 1017.8 hPa West 9.3 km/h 9.3 km/h 51 % 0.0 mm
00:32 25.0 °C 13.8 °C 1017.8 hPa NNW 5.6 km/h 5.6 km/h 50 % 0.0 mm
00:37 23.3 °C 14.9 °C 1018.2 hPa NE 16.7 km/h 16.7 km/h 59 % 0.0 mm
00:42 21.9 °C 14.6 °C 1017.8 hPa SE 11.1 km/h 11.1 km/h 63 % 0.0 mm
00:47 22.1 °C 14.7 °C 1017.8 hPa ESE 11.1 km/h 11.1 km/h 63 % 0.0 mm
00:52 21.7 °C 15.1 °C 1018.2 hPa Calm     66 % 0.0 mm
00:57 21.3 °C 15.1 °C 1018.2 hPa Calm     68 % 0.0 mm
01:02 20.7 °C 15.1 °C 1018.2 hPa ENE 5.6 km/h 5.6 km/h 70 % 0.0 mm
01:07 20.3 °C 15.1 °C 1018.2 hPa ENE 5.6 km/h 5.6 km/h 72 % 0.0 mm
01:12 19.9 °C 15.2 °C 1018.2 hPa ENE 1.9 km/h   74 % 0.0 mm
01:17 19.9 °C 15.3 °C 1018.2 hPa West 5.6 km/h 5.6 km/h 75 % 0.0 mm
01:22 19.8 °C 15.3 °C 1018.2 hPa West 9.3 km/h 9.3 km/h 75 % 0.0 mm
01:27 19.8 °C 15.4 °C 1017.8 hPa WSW 5.6 km/h 5.6 km/h 76 % 0.0 mm
01:32 19.8 °C 15.5 °C 1017.8 hPa NE 5.6 km/h 5.6 km/h 76 % 0.0 mm
01:37 19.6 °C 15.4 °C 1017.8 hPa NE 6.4 km/h 6.4 km/h 77 % 0.0 mm
01:42 19.5 °C 15.3 °C 1017.8 hPa NE 6.4 km/h 6.4 km/h 77 % 0.0 mm
01:47 19.5 °C 15.6 °C 1017.8 hPa NE 11.1 km/h 11.1 km/h 78 % 0.0 mm
01:52 19.4 °C 15.5 °C 1017.8 hPa NE 9.3 km/h 9.3 km/h 78 % 0.0 mm
01:57 19.4 °C 15.4 °C 1017.8 hPa NE 9.3 km/h 9.3 km/h 78 % 0.0 mm
02:02 19.4 °C 15.5 °C 1017.8 hPa NE 5.6 km/h 5.6 km/h 78 % 0.0 mm
02:07 19.4 °C 15.5 °C 1017.8 hPa NE 5.6 km/h 5.6 km/h 78 % 0.0 mm
02:12 19.4 °C 15.7 °C 1017.8 hPa East 11.3 km/h 11.3 km/h 79 % 0.0 mm
02:17 19.1 °C 15.7 °C 1017.8 hPa NE 7.4 km/h 7.4 km/h 81 % 0.0 mm
02:22 18.8 °C 15.5 °C 1017.8 hPa NE 3.7 km/h 3.7 km/h 81 % 0.0 mm
02:27 18.8 °C 15.7 °C 1017.8 hPa NNE 1.9 km/h 1.9 km/h 82 % 0.0 mm
02:32 18.8 °C 15.7 °C 1017.8 hPa East 9.3 km/h 9.3 km/h 82 % 0.0 mm
02:37 18.8 °C 15.7 °C 1017.8 hPa Calm     82 % 0.0 mm
02:42 18.8 °C 15.7 °C 1017.8 hPa East 5.6 km/h 5.6 km/h 82 % 0.0 mm
02:47 18.7 °C 15.7 °C 1017.8 hPa ENE 5.6 km/h 5.6 km/h 83 % 0.0 mm
02:52 18.6 °C 15.6 °C 1017.8 hPa ENE 1.9 km/h 1.9 km/h 83 % 0.0 mm
02:57 18.4 °C 15.7 °C 1017.8 hPa ENE 3.7 km/h 3.7 km/h 84 % 0.0 mm
03:02 18.4 °C 15.6 °C 1017.8 hPa ENE 5.6 km/h 5.6 km/h 84 % 0.0 mm
03:07 18.3 °C 15.6 °C 1017.8 hPa ENE 5.6 km/h 5.6 km/h 84 % 0.0 mm
03:12 18.3 °C 15.3 °C 1017.8 hPa ENE 3.7 km/h 3.7 km/h 83 % 0.0 mm
03:17 18.3 °C 15.4 °C 1017.8 hPa NE 1.9 km/h 1.9 km/h 83 % 0.0 mm
03:22 18.4 °C 15.4 °C 1017.5 hPa Calm     83 % 0.0 mm
03:27 18.6 °C 15.4 °C 1017.8 hPa Calm     82 % 0.0 mm
03:32 18.7 °C 15.4 °C 1017.8 hPa Calm     81 % 0.0 mm
03:37 18.8 °C 15.3 °C 1017.8 hPa Calm     80 % 0.0 mm
03:42 18.8 °C 15.5 °C 1017.5 hPa Calm     81 % 0.0 mm
03:47 18.8 °C 15.4 °C 1017.5 hPa Calm     81 % 0.0 mm
03:52 18.6 °C 15.2 °C 1017.5 hPa Calm     81 % 0.0 mm
03:58 18.4 °C 15.3 °C 1017.5 hPa Calm     82 % 0.0 mm
04:03 18.4 °C 15.3 °C 1017.5 hPa Calm     82 % 0.0 mm
04:08 18.3 °C 15.4 °C 1017.5 hPa Calm     83 % 0.0 mm
04:13 18.1 °C 15.1 °C 1017.5 hPa ESE 7.4 km/h 7.4 km/h 83 % 0.0 mm
04:17 17.9 °C 15.0 °C 1017.5 hPa ESE 3.7 km/h 3.7 km/h 83 % 0.0 mm
04:23 17.9 °C 14.9 °C 1017.2 hPa Calm     83 % 0.0 mm
04:28 17.9 °C 14.9 °C 1017.2 hPa Calm     83 % 0.0 mm
04:33 17.9 °C 14.9 °C 1017.2 hPa Calm     83 % 0.0 mm
04:38 17.9 °C 15.0 °C 1017.2 hPa Calm     83 % 0.0 mm
04:43 18.1 °C 15.1 °C 1017.2 hPa ESE 3.7 km/h 3.7 km/h 83 % 0.0 mm
04:48 18.2 °C 15.1 °C 1017.2 hPa Calm     82 % 0.0 mm
04:53 18.3 °C 15.2 °C 1017.2 hPa Calm     82 % 0.0 mm
04:58 18.3 °C 15.0 °C 1017.2 hPa ESE 3.2 km/h 3.2 km/h 81 % 0.0 mm
05:03 18.4 °C 15.1 °C 1017.2 hPa ESE 4.8 km/h 4.8 km/h 81 % 0.0 mm
05:08 18.6 °C 15.1 °C 1016.8 hPa Calm     80 % 0.0 mm
05:13 18.6 °C 15.1 °C 1016.8 hPa Calm     80 % 0.0 mm
05:18 18.5 °C 14.8 °C 1016.8 hPa ESE 3.7 km/h 3.7 km/h 79 % 0.0 mm
05:23 18.2 °C 14.1 °C 1016.8 hPa ESE 3.7 km/h 3.7 km/h 77 % 0.0 mm
05:28 18.0 °C 13.9 °C 1016.8 hPa ESE 1.9 km/h   77 % 0.0 mm
05:33 17.9 °C 13.8 °C 1016.8 hPa Calm     77 % 0.0 mm
05:38 17.9 °C 13.8 °C 1017.2 hPa Calm     77 % 0.0 mm
05:43 17.9 °C 13.8 °C 1017.2 hPa Calm     77 % 0.0 mm
05:48 18.0 °C 14.1 °C 1017.2 hPa Calm     78 % 0.0 mm
05:53 18.0 °C 13.9 °C 1017.2 hPa Calm     77 % 0.0 mm
05:58 18.0 °C 14.1 °C 1017.2 hPa ESE 3.2 km/h 3.2 km/h 78 % 0.0 mm
06:03 18.2 °C 14.7 °C 1017.2 hPa Calm   0.2 km/h 80 % 0.0 mm
06:08 18.3 °C 14.9 °C 1017.2 hPa Calm     81 % 0.0 mm
06:13 18.1 °C 14.8 °C 1017.2 hPa ESE 1.9 km/h 1.9 km/h 81 % 0.0 mm
06:18 17.8 °C 14.3 °C 1017.2 hPa ESE 3.7 km/h 3.7 km/h 80 % 0.0 mm
06:23 17.6 °C 14.1 °C 1017.2 hPa Calm     80 % 0.0 mm
06:28 17.8 °C 14.7 °C 1017.2 hPa Calm     82 % 0.0 mm
06:33 17.8 °C 14.7 °C 1017.2 hPa ESE 5.6 km/h 5.6 km/h 82 % 0.0 mm
06:38 17.6 °C 14.4 °C 1017.2 hPa Calm     82 % 0.0 mm
06:43 17.3 °C 14.2 °C 1017.2 hPa ESE 3.7 km/h 3.7 km/h 82 % 0.0 mm
06:48 17.4 °C 14.3 °C 1017.2 hPa ESE 1.9 km/h 1.9 km/h 82 % 0.0 mm
06:53 17.4 °C 14.5 °C 1017.2 hPa Calm     83 % 0.0 mm
06:59 17.6 °C 14.8 °C 1017.2 hPa Calm     84 % 0.0 mm
07:04 17.7 °C 14.9 °C 1017.2 hPa ESE 5.6 km/h 5.6 km/h 84 % 0.0 mm
07:09 17.7 °C 15.0 °C 1017.2 hPa WSW 8.0 km/h 8.0 km/h 84 % 0.0 mm
07:14 17.8 °C 15.2 °C 1017.2 hPa WSW 5.6 km/h 5.6 km/h 85 % 0.0 mm
07:19 17.8 °C 15.2 °C 1017.2 hPa WSW 3.7 km/h 3.7 km/h 85 % 0.0 mm
07:24 17.8 °C 15.2 °C 1017.2 hPa WSW 3.2 km/h 3.2 km/h 85 % 0.0 mm
07:29 17.6 °C 14.5 °C 1017.2 hPa NW 5.6 km/h 5.6 km/h 82 % 0.0 mm
07:34 17.8 °C 13.9 °C 1017.2 hPa WNW 7.4 km/h 7.4 km/h 78 % 0.0 mm
07:39 18.2 °C 13.9 °C 1017.2 hPa WNW 1.9 km/h 1.9 km/h 76 % 0.0 mm
07:49 18.3 °C 13.8 °C 1017.5 hPa NE 5.6 km/h 5.6 km/h 75 % 0.0 mm
07:54 18.1 °C 13.6 °C 1017.5 hPa NE 3.2 km/h 3.2 km/h 75 % 0.0 mm
07:59 17.9 °C 13.6 °C 1017.2 hPa ENE 3.7 km/h 3.7 km/h 76 % 0.0 mm
08:04 17.9 °C 14.1 °C 1017.5 hPa South 7.4 km/h 7.4 km/h 78 % 0.0 mm
08:09 17.9 °C 14.1 °C 1017.5 hPa South 5.6 km/h 5.6 km/h 78 % 0.0 mm
08:14 18.0 °C 14.1 °C 1017.5 hPa SE 4.8 km/h 4.8 km/h 78 % 0.0 mm
08:19 17.9 °C 14.4 °C 1017.5 hPa NE 5.6 km/h 5.6 km/h 80 % 0.0 mm
08:24 17.8 °C 14.7 °C 1017.5 hPa NE 6.4 km/h 6.4 km/h 82 % 0.0 mm
08:29 17.6 °C 14.7 °C 1017.5 hPa NE 9.3 km/h 9.3 km/h 83 % 0.0 mm
08:34 17.4 °C 14.7 °C 1017.5 hPa NE 11.1 km/h 11.1 km/h 84 % 0.0 mm
08:39 17.3 °C 14.7 °C 1017.5 hPa NNE 5.6 km/h 5.6 km/h 85 % 0.0 mm
08:44 17.2 °C 14.5 °C 1017.8 hPa NNE 5.6 km/h 5.6 km/h 84 % 0.0 mm
08:49 17.4 °C 14.9 °C 1017.8 hPa Calm     85 % 0.0 mm
08:54 17.6 °C 15.1 °C 1018.2 hPa Calm     85 % 0.0 mm
08:59 17.9 °C 15.6 °C 1017.8 hPa ENE 5.6 km/h 5.6 km/h 86 % 0.0 mm
09:04 17.9 °C 15.7 °C 1018.2 hPa ENE 1.9 km/h 1.9 km/h 87 % 0.0 mm
09:09 17.9 °C 15.7 °C 1018.2 hPa ENE 5.6 km/h 5.6 km/h 87 % 0.0 mm
09:14 17.9 °C 15.7 °C 1018.2 hPa Calm     87 % 0.0 mm
09:19 17.9 °C 15.7 °C 1018.2 hPa Calm     87 % 0.0 mm
09:24 17.9 °C 15.9 °C 1018.2 hPa Calm     88 % 0.0 mm
09:29 17.9 °C 15.9 °C 1018.2 hPa ENE 3.7 km/h 3.7 km/h 88 % 0.0 mm
09:34 17.8 °C 15.8 °C 1018.2 hPa ENE 3.7 km/h 3.7 km/h 88 % 0.0 mm
09:39 17.8 °C 15.8 °C 1018.5 hPa Calm     88 % 0.0 mm
09:44 17.9 °C 15.9 °C 1018.5 hPa Calm     88 % 0.0 mm
09:49 18.0 °C 16.0 °C 1018.5 hPa Calm     88 % 0.0 mm
09:54 18.2 °C 16.2 °C 1018.5 hPa Calm     88 % 0.0 mm
09:59 18.3 °C 16.3 °C 1018.5 hPa Calm     88 % 0.0 mm
10:04 18.4 °C 16.4 °C 1018.5 hPa Calm     88 % 0.0 mm
10:09 18.5 °C 16.3 °C 1018.5 hPa Calm     87 % 0.0 mm
10:14 18.7 °C 16.4 °C 1018.5 hPa ENE 1.9 km/h   87 % 0.0 mm
10:19 18.7 °C 16.3 °C 1018.5 hPa Calm     86 % 0.0 mm
10:24 18.6 °C 16.2 °C 1018.5 hPa Calm     86 % 0.0 mm
10:29 18.5 °C 16.1 °C 1018.8 hPa ENE 3.7 km/h 3.7 km/h 86 % 0.0 mm
10:34 18.4 °C 16.2 °C 1018.8 hPa ENE 5.6 km/h 5.6 km/h 87 % 0.0 mm
10:39 18.3 °C 16.1 °C 1018.8 hPa ENE 5.6 km/h 5.6 km/h 87 % 0.0 mm
10:44 18.2 °C 16.0 °C 1018.8 hPa ENE 5.6 km/h 5.6 km/h 87 % 0.0 mm
10:49 18.2 °C 16.2 °C 1018.8 hPa ENE 5.6 km/h 5.6 km/h 88 % 0.0 mm
10:54 18.3 °C 16.3 °C 1018.8 hPa ENE 5.6 km/h 5.6 km/h 88 % 0.0 mm
10:59 18.3 °C 16.3 °C 1019.2 hPa ENE 5.6 km/h 5.6 km/h 88 % 0.0 mm
11:04 18.4 °C 16.4 °C 1019.2 hPa Calm     88 % 0.0 mm
11:09 18.7 °C 16.6 °C 1019.2 hPa Calm     88 % 0.0 mm
11:14 18.9 °C 16.8 °C 1019.2 hPa Calm     88 % 0.0 mm
11:19 19.2 °C 16.9 °C 1019.2 hPa Calm     87 % 0.0 mm
11:24 19.3 °C 17.1 °C 1019.2 hPa Calm     87 % 0.0 mm
11:29 19.4 °C 17.1 °C 1019.2 hPa Calm     86 % 0.0 mm
11:30 19.4 °C 17.1 °C 1019.2 hPa Calm     86 % 0.0 mm
11:35 19.5 °C 16.9 °C 1019.2 hPa ENE 3.7 km/h 3.7 km/h 85 % 0.0 mm
11:40 19.6 °C 16.8 °C 1019.2 hPa ENE 1.9 km/h 1.9 km/h 84 % 0.0 mm
11:45 19.7 °C 16.8 °C 1019.2 hPa ENE 3.7 km/h 3.7 km/h 83 % 0.0 mm
11:50 19.8 °C 16.6 °C 1019.2 hPa SSE 7.4 km/h 7.4 km/h 82 % 0.0 mm
11:55 19.8 °C 16.7 °C 1019.2 hPa SSW 5.6 km/h 5.6 km/h 82 % 0.0 mm
12:00 19.7 °C 16.4 °C 1019.5 hPa SSW 5.6 km/h 5.6 km/h 81 % 0.0 mm
12:05 19.4 °C 16.3 °C 1019.5 hPa SE 3.7 km/h 3.7 km/h 82 % 0.0 mm
12:10 19.4 °C 16.4 °C 1019.5 hPa East 5.6 km/h 5.6 km/h 83 % 0.0 mm
12:15 19.3 °C 16.3 °C 1019.2 hPa East 3.7 km/h 3.7 km/h 83 % 0.0 mm
12:20 19.2 °C 16.2 °C 1019.5 hPa East 5.6 km/h 5.6 km/h 83 % 0.0 mm
12:25 19.1 °C 15.8 °C 1019.5 hPa East 3.7 km/h 3.7 km/h 81 % 0.0 mm
12:30 19.2 °C 15.2 °C 1019.2 hPa East 5.6 km/h 5.6 km/h 78 % 0.0 mm
12:35 19.3 °C 15.2 °C 1019.2 hPa East 7.4 km/h 7.4 km/h 77 % 0.0 mm
12:40 19.5 °C 14.9 °C 1019.2 hPa East 3.7 km/h 3.7 km/h 75 % 0.0 mm
12:45 19.7 °C 14.9 °C 1019.2 hPa East 5.6 km/h 5.6 km/h 74 % 0.0 mm
12:50 19.9 °C 15.3 °C 1019.2 hPa East 8.0 km/h 8.0 km/h 75 % 0.0 mm
12:55 20.2 °C 16.4 °C 1019.2 hPa East 8.0 km/h 8.0 km/h 79 % 0.0 mm
13:00 20.1 °C 16.3 °C 1019.2 hPa East 7.4 km/h 7.4 km/h 79 % 0.0 mm
13:05 19.8 °C 16.3 °C 1019.2 hPa East 8.0 km/h 8.0 km/h 80 % 0.0 mm
13:10 19.7 °C 16.6 °C 1019.5 hPa East 7.4 km/h 7.4 km/h 82 % 0.0 mm
13:15 20.0 °C 17.0 °C 1019.5 hPa SE 5.6 km/h 5.6 km/h 83 % 0.0 mm
13:20 20.2 °C 17.1 °C 1019.5 hPa SE 6.4 km/h 6.4 km/h 82 % 0.0 mm
13:25 20.2 °C 16.9 °C 1019.5 hPa SSE 4.8 km/h 8.0 km/h 81 % 0.0 mm
13:30 20.2 °C 17.1 °C 1019.5 hPa SSE 4.8 km/h 4.8 km/h 82 % 0.0 mm
13:35 20.3 °C 16.8 °C 1019.5 hPa SSE 5.6 km/h 5.6 km/h 80 % 0.0 mm
Puerto Banus, Marbella
Elogios de Weather Underground - 1.5 mb

Guión original por  Jim McMurry - jmcmurry@mwt.net Adaptado para la plantilla por  Wim van der Kuil - Leuven-Template.eu

Usted encontrará nuestra información del tiempo también en:

Weather Underground

Iberian Peninsula Weather Network